AirNav   TITAN Aviation Fuels
 
 558 users online  

CA13 Reedley College Airport
Reedley, California, USA

GOING TO REEDLEY?


FAA INFORMATION EFFECTIVE 03 NOVEMBER 2022

Location

FAA Identifier: CA13
Lat/Long: 36-36-24.8220N 119-27-48.4530W
36-36.413700N 119-27.807550W
36.6068950,-119.4634592
(estimated)
Elevation: 350 ft. / 107 m (estimated)
Variation: 15E (1985)
From city: 1 mile NW of REEDLEY, CA
Time zone: UTC -8 (UTC -7 during Daylight Saving Time)
Zip code: 93654

Airport Operations

Airport use: Private use. Permission required prior to landing
Activation date: 02/1971
Control tower: no
ARTCC: OAKLAND CENTER
FSS: RANCHO MURIETA FLIGHT SERVICE STATION
Attendance: AUG-MAY MON-FRI 0730-1330
Wind indicator: no
Segmented circle: no

Airport Communications

WX AWOS-3PT at O32 (4 nm N): 120.175 (559-637-9453)
WX ASOS at FAT (16 nm NW): PHONE 559-255-3413
WX AWOS-3PT at VIS (18 nm S): 119.925 (559-651-2418)
WX AWOS-3 at FCH (19 nm NW): 135.225 (559-488-1040)
WX ASOS at HJO (19 nm SW): 134.75 (559-585-8076)

Nearby radio navigation aids

VOR radial/distance  VOR name  Freq  Var
FRAr151/30.5FRIANT VORTAC115.6017E

 
NDB name  Hdg/Dist  Freq  Var  ID
SALYER FARMS350/32.620516ECOR -.-. --- .-.

Airport Services

Airframe service: NONE
Powerplant service: NONE

Runway Information

Runway 18/36

Dimensions: 2000 x 75 ft. / 610 x 23 m
Surface: turf
RUNWAY 18  RUNWAY 36
Traffic pattern: leftleft
Obstructions: nonetrees pline

Airport Ownership and Management from official FAA records

Ownership: Publicly-owned
Owner: ST CTR COMMUNITY COLLEGE DIS
REED AND MANNING AVE
REEDLEY, CA 93654
STATE CENTER COMMUNITY COLLEGE DISTRICT.
Manager: DAVID RICHEY
REEDLEY COLLEGE
REEDLEY, CA 93654
Phone (559) 638-0300
EXT 3243 OR 0318.

Airport Operational Statistics

Aircraft based on the field: 1
Single engine airplanes: 1
    

Additional Remarks

ARPT SUBJ TO THE CONDITIONS SET FORTH BY COLLEGE WHEN BRINGING ACFT FOR INSPECTION & MINOR REPAIR.
FOR CD CTC FRESNO APCH AT 559-487-5405.

Instrument Procedures

There are no published instrument procedures at CA13.

Some nearby airports with instrument procedures:

O32 - Reedley Municipal Airport (4 nm N)
KFAT - Fresno Yosemite International Airport (16 nm NW)
KVIS - Visalia Municipal Airport (18 nm S)
KFCH - Fresno Chandler Executive Airport (19 nm NW)
KHJO - Hanford Municipal Airport (19 nm SW)
 
Loc | Ops | Rwys | IFR | FBO | Links
Com | Nav | Svcs | Stats | Notes
Area around CA13 (Reedley College Airport)
 
Road maps at: MapQuest Bing Google
 
Aerial photo
No photo
 
Sectional chart

 
Airport distance calculator
Flying to Reedley College Airport? Find the distance to fly.

From to CA13

Sunrise and sunset
Times for 28-Nov-2022
 Local
(UTC-8)
 Zulu
(UTC)
Morning civil twilight06:2214:22
Sunrise06:5014:50
Sunset16:4200:42
Evening civil twilight17:1001:10

Current date and time
Zulu (UTC)  28-Nov-2022 11:48:27
Local (UTC-8)  28-Nov-2022 03:48:27
 
METAR
KO32 
4nm N 
281135Z AUTO 10004KT 9SM CLR 04/02 A2996 RMK AO2 T00360024 $
KFAT 
16nm NW 
281053Z 00000KT 6SM HZ SCT200 06/02 A2997 RMK AO2 SLP148 T00610022 $
KVIS 
18nm S 
281056Z AUTO 05003KT 4SM BR CLR 04/02 A2998 RMK AO2 SLP163 T00440022
KHJO 
19nm SW 
281053Z AUTO 00000KT 2 1/2SM BR CLR 02/01 A2998 RMK AO2 SLP155 T00220011
TAF
KFAT 
16nm NW 
280525Z 2806/2906 VRB02KT 5SM HZ SCT200 FM281200 36004KT 4SM HZ BR SCT250 FM282000 30008KT 6SM HZ FEW250
KVIS 
18nm S 
280525Z 2806/2906 VRB04KT 5SM HZ SKC FM281200 VRB05KT 4SM HZ BR SCT250
NOTAMs
Click for the latest NOTAMs
NOTAMs are issued by the DoD/FAA and will open in a separate window not controlled by AirNav.

 

 
 

Would you like to see your business listed on this page?

 If your business provides an interesting product or service to pilots, flight crews, aircraft, or users of the Reedley College Airport, you should consider listing it here.  To start the listing process, click on the button below
 
Add a business
 

Other Pages about Reedley College Airport

Update a link
 
Copyright © AirNav, LLC. All rights reserved. Privacy Policy  Contact